Naarden, Netherlands
Current Conditions -  °F | °C
As of 11:25 AM on Wednesday 22 Oct 2014 (Local Time) from EHAM Reporting Station
Rain Showers Rain Showers  
Wind Chill: 52°   Ceiling: Unl
Heat Index: 52°   Visibility: 6mi
Dew Point: 45°   Wind: 22mph
Humidity: 76%   Direction: 310°NW
Pressure: 30.03"   Gusts: NA
Location:  52.3°N, 5.16°E
Report Text: EHAM 220925Z 31019KT 9999 VCSH FEW025CB 11/07 Q1017 TEMPO30020G32KT 7000 -SHRA
Loading
Personal Weather Stations






























Interactive Weather Map
Tropical Storm Tracking
New forecast layout! Learn more

10-Day Weather Forecast

Advertisements
Track Severe Weather on mobile